Time;durP1;ratioP1;P1;durP2;ratioP2;P2;SDS_P1;SDS_P2;PMS_P1;PMS_P2;Temp;Humidity;BMP_temperature;BMP_pressure;BME280_temperature;BME280_humidity;BME280_pressure;Samples;Min_cycle;Max_cycle;Signal;HPM_P1;HPM_P2
2020/12/31 00:01:47;;;;;;;23.73;16.85;;;;;;;4.21;70.73;101238.94;1787303;78;21022;-76
2020/12/31 00:04:15;;;;;;;21.90;15.75;;;;;;;4.18;70.88;101242.92;1787241;78;20954;-75
2020/12/31 00:06:42;;;;;;;26.80;16.27;;;;;;;4.14;70.88;101230.45;1787296;78;21053;-75
2020/12/31 00:09:11;;;;;;;24.85;16.62;;;;;;;4.13;70.98;101233.06;1787637;78;21484;-77
2020/12/31 00:11:40;;;;;;;22.27;16.07;;;;;;;4.12;70.97;101238.71;1719889;81;21181;-75
2020/12/31 00:14:08;;;;;;;25.32;16.62;;;;;;;4.13;70.89;101239.10;1787280;78;20951;-76
2020/12/31 00:16:36;;;;;;;33.70;18.17;;;;;;;4.10;70.82;101243.53;1719950;82;21066;-76
2020/12/31 00:19:04;;;;;;;25.95;14.83;;;;;;;4.07;70.90;101241.86;1787175;78;20931;-76
2020/12/31 00:21:32;;;;;;;23.65;16.15;;;;;;;4.06;71.06;101240.59;1720052;82;21496;-76
2020/12/31 00:24:00;;;;;;;22.10;14.90;;;;;;;4.04;71.05;101241.07;1787495;78;20981;-77
2020/12/31 00:26:28;;;;;;;20.10;13.70;;;;;;;4.01;70.98;101232.91;1719757;82;21034;-76
2020/12/31 00:28:56;;;;;;;23.50;15.10;;;;;;;3.99;70.94;101232.55;1787388;78;20914;-77
2020/12/31 00:31:24;;;;;;;25.50;16.10;;;;;;;3.98;71.09;101230.41;1787501;78;20927;-76
2020/12/31 00:33:52;;;;;;;22.48;15.43;;;;;;;4.00;70.99;101219.52;1719927;82;20974;-76
2020/12/31 00:36:19;;;;;;;21.97;14.95;;;;;;;4.01;70.89;101225.58;1787432;78;21157;-76
2020/12/31 00:38:51;;;;;;;22.07;13.85;;;;;;;4.01;70.70;101225.58;1719776;82;21014;-76
2020/12/31 00:41:21;;;;;;;25.62;14.58;;;;;;;4.00;70.72;101226.00;1787429;78;20970;-77
2020/12/31 00:43:49;;;;;;;19.25;14.05;;;;;;;4.02;70.67;101232.47;1787347;78;21021;-77
2020/12/31 00:46:17;;;;;;;21.10;13.78;;;;;;;4.02;70.68;101222.93;1720105;82;21006;-79
2020/12/31 00:48:46;;;;;;;22.60;14.15;;;;;;;4.05;70.64;101227.22;1787533;78;21165;-76
2020/12/31 00:51:14;;;;;;;21.82;13.38;;;;;;;4.08;70.56;101225.84;1787450;78;20974;-78
2020/12/31 00:53:42;;;;;;;22.10;13.68;;;;;;;4.10;70.26;101227.96;1787545;78;21508;-77
2020/12/31 00:56:11;;;;;;;29.30;15.75;;;;;;;4.08;70.33;101218.05;1787587;78;21467;-77
2020/12/31 00:58:39;;;;;;;25.95;15.28;;;;;;;4.05;70.23;101211.20;1781983;80;21387;-77
2020/12/31 01:01:07;;;;;;;24.00;14.50;;;;;;;4.01;70.26;101208.27;1774880;80;21597;-76
2020/12/31 01:03:35;;;;;;;20.20;14.05;;;;;;;3.99;70.27;101213.08;1774835;80;21044;-76
2020/12/31 01:06:02;;;;;;;26.05;14.47;;;;;;;3.98;70.11;101207.05;1774909;80;20959;-76
2020/12/31 01:08:30;;;;;;;18.35;12.20;;;;;;;3.95;70.13;101195.42;1774790;78;20955;-76
2020/12/31 01:10:58;;;;;;;22.05;14.80;;;;;;;3.93;70.15;101195.48;1774867;80;20978;-77
2020/12/31 01:15:29;;;;;;;19.20;13.05;;;;;;;3.89;70.31;101169.19;1844863;76;22700;-76
2020/12/31 01:17:59;;;;;;;24.25;16.05;;;;;;;3.80;70.32;101165.94;1822756;77;21431;-76
2020/12/31 01:20:28;;;;;;;21.45;13.48;;;;;;;3.71;70.46;101156.20;1755318;80;20964;-76
2020/12/31 01:22:56;;;;;;;21.12;13.65;;;;;;;3.71;70.64;101173.48;1758831;80;20991;-76
2020/12/31 01:25:23;;;;;;;23.35;15.38;;;;;;;3.64;70.72;101176.66;1758847;80;20955;-76
2020/12/31 01:27:51;;;;;;;23.45;14.03;;;;;;;3.63;70.86;101193.58;1786511;79;21479;-76
2020/12/31 01:30:20;;;;;;;21.15;13.25;;;;;;;3.64;71.01;101207.78;1786685;79;21455;-75
2020/12/31 01:32:48;;;;;;;22.58;13.90;;;;;;;3.62;71.25;101213.44;1786590;79;21076;-77
2020/12/31 01:35:16;;;;;;;46.18;23.00;;;;;;;3.58;71.36;101227.81;1776619;80;21061;-75
2020/12/31 01:37:44;;;;;;;39.55;23.10;;;;;;;3.58;71.55;101239.48;1760375;80;21511;-76
2020/12/31 01:40:13;;;;;;;23.45;15.23;;;;;;;3.56;71.74;101236.94;1740713;81;20963;-75
2020/12/31 01:42:42;;;;;;;26.93;17.57;;;;;;;3.57;71.77;101240.37;1760283;80;20966;-78
2020/12/31 01:45:12;;;;;;;27.70;16.82;;;;;;;3.54;71.75;101245.19;1760292;81;20939;-77
2020/12/31 01:47:40;;;;;;;25.35;15.78;;;;;;;3.53;71.64;101243.05;1760250;80;21497;-75
2020/12/31 01:50:08;;;;;;;24.27;16.17;;;;;;;3.52;71.64;101240.48;1713960;81;20971;-76
2020/12/31 01:52:36;;;;;;;21.30;13.93;;;;;;;3.52;71.38;101240.03;1760224;80;21045;-76
2020/12/31 01:55:05;;;;;;;24.65;14.28;;;;;;;3.55;71.39;101253.81;1740804;81;21416;-76
2020/12/31 01:57:33;;;;;;;20.52;13.78;;;;;;;3.55;71.46;101248.62;1760320;80;21919;-76
2020/12/31 02:00:01;;;;;;;22.42;15.05;;;;;;;3.53;71.29;101246.94;1740646;81;20982;-76
2020/12/31 02:02:31;;;;;;;20.95;14.05;;;;;;;3.45;71.07;101244.94;1758672;80;20966;-75
2020/12/31 02:04:59;;;;;;;26.90;18.42;;;;;;;3.35;71.18;101268.02;1740627;81;21060;-76
2020/12/31 02:07:27;;;;;;;27.17;14.95;;;;;;;3.29;71.53;101261.23;1760328;80;21033;-75
2020/12/31 02:09:55;;;;;;;21.42;14.63;;;;;;;3.27;71.58;101245.31;1716407;81;21295;-76
2020/12/31 02:12:22;;;;;;;24.90;16.30;;;;;;;3.20;71.65;101261.42;1760199;80;21017;-77
2020/12/31 02:14:51;;;;;;;23.07;14.63;;;;;;;3.16;71.70;101245.52;1737547;81;21037;-77
2020/12/31 02:17:19;;;;;;;23.77;14.80;;;;;;;3.10;71.68;101252.10;1812119;78;21010;-77
2020/12/31 02:19:47;;;;;;;21.05;15.05;;;;;;;3.05;71.84;101263.85;1812071;78;21029;-76
2020/12/31 02:22:15;;;;;;;26.23;16.27;;;;;;;3.02;71.92;101248.79;1812258;78;21150;-74
2020/12/31 02:24:43;;;;;;;22.62;14.93;;;;;;;2.99;72.11;101259.22;1812075;78;20943;-74
2020/12/31 02:27:11;;;;;;;24.15;15.90;;;;;;;2.97;72.27;101241.11;1811543;78;20950;-75
2020/12/31 02:29:39;;;;;;;22.93;15.60;;;;;;;2.94;72.22;101236.44;1811558;78;21030;-74
2020/12/31 02:32:08;;;;;;;26.35;15.65;;;;;;;2.86;72.30;101241.30;1811481;78;20991;-76
2020/12/31 02:34:36;;;;;;;27.52;16.10;;;;;;;2.80;72.45;101236.67;1811680;78;20966;-75
2020/12/31 02:37:05;;;;;;;23.57;14.95;;;;;;;2.75;72.55;101244.97;1811583;78;20971;-76
2020/12/31 02:39:32;;;;;;;23.52;15.88;;;;;;;2.69;72.69;101240.73;1811556;78;20927;-75
2020/12/31 02:42:00;;;;;;;22.50;15.60;;;;;;;2.69;72.75;101246.80;1811450;78;20944;-75
2020/12/31 02:44:28;;;;;;;22.75;13.68;;;;;;;2.68;72.82;101241.19;1811559;78;21014;-74
2020/12/31 02:46:56;;;;;;;24.57;15.50;;;;;;;2.63;73.04;101238.28;1811531;78;21177;-75
2020/12/31 02:49:24;;;;;;;23.30;14.98;;;;;;;2.59;73.23;101246.52;1811609;78;20943;-75
2020/12/31 02:51:52;;;;;;;25.55;16.15;;;;;;;2.59;73.35;101235.32;1812040;78;20946;-76
2020/12/31 02:54:20;;;;;;;24.82;16.80;;;;;;;2.58;73.37;101237.48;1814281;78;21038;-75
2020/12/31 02:56:48;;;;;;;24.00;15.18;;;;;;;2.56;73.44;101234.09;1812993;78;21014;-75
2020/12/31 02:59:16;;;;;;;24.65;16.40;;;;;;;2.56;73.54;101241.86;1811800;78;21983;-74
2020/12/31 03:01:44;;;;;;;26.45;15.53;;;;;;;2.57;73.55;101237.92;1811358;78;21404;-76
2020/12/31 03:04:12;;;;;;;23.62;15.03;;;;;;;2.61;73.54;101241.33;1811486;78;20960;-76
2020/12/31 03:06:40;;;;;;;22.55;13.30;;;;;;;2.64;73.66;101235.64;1811518;78;21055;-76
2020/12/31 03:09:09;;;;;;;25.32;16.60;;;;;;;2.67;73.70;101239.94;1811558;78;21006;-75
2020/12/31 03:11:37;;;;;;;25.60;15.65;;;;;;;2.64;73.78;101221.40;1811611;78;22393;-76
2020/12/31 03:14:04;;;;;;;27.52;16.35;;;;;;;2.66;73.93;101231.73;1810229;78;20967;-76
2020/12/31 03:16:32;;;;;;;23.90;15.13;;;;;;;2.69;73.98;101223.48;1790795;78;20976;-76
2020/12/31 03:19:01;;;;;;;25.05;15.48;;;;;;;2.68;73.96;101230.83;1805619;78;20987;-75
2020/12/31 03:21:30;;;;;;;25.50;16.12;;;;;;;2.67;74.03;101229.13;1805708;78;20978;-76
2020/12/31 03:23:57;;;;;;;24.27;17.05;;;;;;;2.66;74.12;101223.52;1805744;78;21002;-76
2020/12/31 03:26:25;;;;;;;24.98;16.07;;;;;;;2.62;74.22;101218.02;1805532;78;20987;-75
2020/12/31 03:28:53;;;;;;;29.57;17.70;;;;;;;2.60;74.79;101231.42;1805626;78;20904;-77
2020/12/31 03:31:21;;;;;;;28.25;17.20;;;;;;;2.54;75.07;101220.31;1805699;78;20966;-76
2020/12/31 03:33:49;;;;;;;33.45;19.62;;;;;;;2.51;75.46;101226.37;1806259;78;20967;-78
2020/12/31 03:36:18;;;;;;;32.93;19.00;;;;;;;2.53;75.60;101218.59;1806405;78;21986;-77
2020/12/31 03:38:45;;;;;;;37.58;20.80;;;;;;;2.55;75.84;101226.73;1806349;78;20935;-76
2020/12/31 03:41:13;;;;;;;36.03;20.88;;;;;;;2.59;75.98;101229.70;1806620;78;20967;-75
2020/12/31 03:43:41;;;;;;;36.58;18.23;;;;;;;2.61;76.20;101235.70;1806433;78;20978;-76
2020/12/31 03:46:08;;;;;;;33.33;20.72;;;;;;;2.58;76.52;101240.95;1807213;78;21002;-76
2020/12/31 03:48:36;;;;;;;32.25;20.12;;;;;;;2.55;76.83;101242.27;1806409;78;20971;-75
2020/12/31 03:51:04;;;;;;;36.33;21.05;;;;;;;2.50;77.43;101229.86;1805474;78;20955;-76
2020/12/31 03:53:32;;;;;;;43.60;21.70;;;;;;;2.43;78.03;101236.02;1805569;78;20935;-76
2020/12/31 03:55:59;;;;;;;36.60;21.82;;;;;;;2.41;78.44;101230.86;1805552;78;21054;-76
2020/12/31 03:58:27;;;;;;;35.45;21.17;;;;;;;2.38;78.49;101224.87;1805604;78;20963;-75
2020/12/31 04:00:55;;;;;;;37.03;20.52;;;;;;;2.39;78.57;101239.09;1805481;78;21644;-75
2020/12/31 04:03:23;;;;;;;35.98;20.52;;;;;;;2.43;78.45;101229.55;1805968;78;20947;-75
2020/12/31 04:05:50;;;;;;;35.43;21.17;;;;;;;2.42;78.41;101228.70;1805880;78;21030;-75
2020/12/31 04:08:18;;;;;;;32.83;17.90;;;;;;;2.39;78.54;101226.59;1805525;78;21017;-75
2020/12/31 04:10:46;;;;;;;34.50;20.08;;;;;;;2.34;78.62;101237.02;1805689;78;20943;-77
2020/12/31 04:13:14;;;;;;;36.17;20.35;;;;;;;2.26;78.79;101225.93;1805574;78;21155;-75
2020/12/31 04:15:42;;;;;;;37.00;21.25;;;;;;;2.22;78.76;101225.56;1805143;78;20904;-76
2020/12/31 04:18:10;;;;;;;40.90;21.48;;;;;;;2.15;78.92;101220.07;1805376;78;20943;-76
2020/12/31 04:20:38;;;;;;;34.90;20.75;;;;;;;2.10;79.00;101214.13;1805230;78;21654;-74
2020/12/31 04:23:07;;;;;;;38.05;21.77;;;;;;;2.06;79.20;101212.01;1805332;78;21018;-77
2020/12/31 04:25:35;;;;;;;36.13;20.02;;;;;;;2.01;79.30;101199.15;1835592;78;21358;-76
2020/12/31 04:28:03;;;;;;;35.20;20.80;;;;;;;2.02;79.55;101199.58;1805336;78;20916;-75
2020/12/31 04:30:33;;;;;;;42.03;24.27;;;;;;;2.03;79.70;101206.89;1805277;77;20955;-76
2020/12/31 04:33:01;;;;;;;37.93;21.60;;;;;;;2.05;79.72;101206.44;1779412;78;20939;-75
2020/12/31 04:35:30;;;;;;;37.20;20.72;;;;;;;2.06;79.77;101209.42;1805386;78;21440;-76
2020/12/31 04:37:58;;;;;;;33.98;20.05;;;;;;;2.08;79.72;101203.34;1805248;78;20999;-76
2020/12/31 04:40:26;;;;;;;33.50;19.98;;;;;;;2.13;79.74;101211.48;1805368;78;21492;-76
2020/12/31 04:42:54;;;;;;;37.20;21.82;;;;;;;2.13;79.66;101208.44;1805272;78;20951;-77
2020/12/31 04:45:23;;;;;;;40.63;21.65;;;;;;;2.16;79.93;101226.97;1805182;78;20939;-76
2020/12/31 04:48:19;;;;;;;37.63;20.90;;;;;;;2.25;79.94;101270.37;1805347;78;20967;-77
2020/12/31 04:50:48;;;;;;;39.50;21.05;;;;;;;2.33;79.72;101266.35;1790783;78;21515;-77
2020/12/31 04:53:17;;;;;;;37.60;20.15;;;;;;;2.39;79.23;101243.42;1805175;78;20991;-77
2020/12/31 04:55:46;;;;;;;38.70;22.32;;;;;;;2.35;79.14;101258.13;1805107;78;21318;-78
2020/12/31 04:58:15;;;;;;;29.37;20.10;;;;;;;2.40;78.99;101248.99;1805296;78;20943;-78
2020/12/31 05:00:45;;;;;;;28.55;17.50;;;;;;;2.43;78.74;101264.49;1805273;78;20962;-77
2020/12/31 05:03:13;;;;;;;28.77;19.23;;;;;;;2.40;78.47;101268.41;1835563;77;21190;-77
2020/12/31 05:05:41;;;;;;;32.65;19.75;;;;;;;2.35;78.58;101291.77;1805278;78;20983;-75
2020/12/31 05:08:09;;;;;;;31.07;19.62;;;;;;;2.34;78.56;101283.61;1779580;78;20943;-77
2020/12/31 05:10:38;;;;;;;33.65;17.77;;;;;;;2.31;78.40;101286.67;1805151;78;21053;-74
2020/12/31 05:13:07;;;;;;;29.57;18.35;;;;;;;2.28;78.39;101279.37;1788162;78;21045;-76
2020/12/31 05:15:42;;;;;;;29.32;17.40;;;;;;;2.23;78.11;101251.42;1805297;78;21161;-75
2020/12/31 05:18:24;;;;;;;27.00;17.15;;;;;;;2.19;78.18;101252.78;1805684;78;20970;-76
2020/12/31 05:20:57;;;;;;;30.43;17.92;;;;;;;2.14;78.20;101261.06;1835762;78;20942;-79
2020/12/31 05:23:28;;;;;;;25.45;15.63;;;;;;;2.10;78.41;101277.05;1805673;78;20950;-75
2020/12/31 05:25:58;;;;;;;31.35;20.32;;;;;;;2.08;78.38;101272.34;1835940;78;21454;-76
2020/12/31 05:28:37;;;;;;;28.20;17.67;;;;;;;2.04;78.46;101295.25;1778176;78;21965;-77
2020/12/31 05:31:10;;;;;;;29.07;18.67;;;;;;;1.96;78.44;101264.77;1805495;78;20963;-77
2020/12/31 05:33:42;;;;;;;32.63;18.55;;;;;;;2.04;78.46;101299.13;1805466;78;20963;-80
2020/12/31 05:36:25;;;;;;;28.10;16.55;;;;;;;2.07;78.36;101284.43;1805586;78;21429;-74
2020/12/31 05:39:01;;;;;;;26.80;16.10;;;;;;;2.10;78.05;101282.67;1805491;78;20935;-76
2020/12/31 05:41:36;;;;;;;30.27;17.73;;;;;;;2.03;78.05;101284.49;1805543;78;21085;-76
2020/12/31 05:44:06;;;;;;;27.87;17.45;;;;;;;1.93;78.21;101282.45;1805500;78;21077;-76
2020/12/31 05:46:36;;;;;;;28.25;18.85;;;;;;;1.89;78.53;101287.69;1805544;78;21017;-77
2020/12/31 05:49:06;;;;;;;28.20;18.32;;;;;;;1.89;78.52;101278.64;1805427;78;20951;-76
2020/12/31 05:51:36;;;;;;;24.98;16.90;;;;;;;1.88;78.53;101284.70;1805501;78;20939;-77
2020/12/31 05:54:13;;;;;;;34.05;19.27;;;;;;;1.86;78.59;101285.56;1805476;78;21163;-77
2020/12/31 05:56:44;;;;;;;24.82;15.05;;;;;;;1.89;78.51;101280.81;1805353;78;20943;-76
2020/12/31 05:59:24;;;;;;;29.98;16.75;;;;;;;1.92;78.45;101277.33;1805609;78;20959;-77
2020/12/31 06:02:01;;;;;;;30.37;17.75;;;;;;;1.89;78.62;101276.94;1805515;78;20950;-76
2020/12/31 06:04:46;;;;;;;26.50;16.50;;;;;;;1.88;78.71;101280.38;1805661;78;21029;-78
2020/12/31 06:07:20;;;;;;;;;;;;;;;1.89;78.91;101283.81;1808326;78;21117;-78
2020/12/31 06:09:50;;;;;;;33.30;18.23;;;;;;;1.98;78.90;101281.09;1829524;78;20135;-79
2020/12/31 06:12:18;;;;;;;32.95;18.20;;;;;;;2.02;78.79;101282.77;1805703;78;21035;-77
2020/12/31 06:14:46;;;;;;;31.40;18.57;;;;;;;2.06;78.71;101297.38;1791815;78;21007;-76
2020/12/31 06:17:14;;;;;;;27.00;17.57;;;;;;;2.10;78.62;101287.85;1785035;78;20907;-76
2020/12/31 06:19:42;;;;;;;28.20;18.00;;;;;;;2.12;78.39;101290.83;1798113;78;21128;-76
2020/12/31 06:22:11;;;;;;;29.20;16.42;;;;;;;2.13;78.55;101291.67;1783751;78;20970;-78
2020/12/31 06:24:46;;;;;;;28.95;16.45;;;;;;;2.13;78.51;101289.09;1811246;78;20994;-76
2020/12/31 06:27:19;;;;;;;35.55;20.25;;;;;;;2.10;78.43;101293.02;1811365;77;20939;-75
2020/12/31 06:29:49;;;;;;;31.42;18.73;;;;;;;2.08;78.60;101274.48;1812501;78;21034;-74
2020/12/31 06:32:34;;;;;;;27.77;19.27;;;;;;;2.08;78.37;101271.05;1812626;78;21630;-76
2020/12/31 06:35:09;;;;;;;30.97;17.07;;;;;;;2.06;78.40;101277.97;1811172;78;20939;-76
2020/12/31 06:37:38;;;;;;;30.85;17.80;;;;;;;2.04;78.42;101272.81;1810842;78;21006;-77
2020/12/31 06:40:27;;;;;;;29.40;16.82;;;;;;;2.03;78.54;101289.22;1810903;78;20999;-75
2020/12/31 06:43:11;;;;;;;36.93;21.12;;;;;;;2.05;78.57;101286.18;1811046;78;20975;-77
2020/12/31 06:45:49;;;;;;;29.98;18.00;;;;;;;2.05;78.54;101298.27;1811051;78;21013;-76
2020/12/31 06:48:32;;;;;;;29.70;17.87;;;;;;;2.08;78.47;101291.74;1810909;78;21132;-77
2020/12/31 06:51:08;;;;;;;31.90;18.40;;;;;;;2.06;78.28;101290.91;1810983;78;20959;-78
2020/12/31 06:53:45;;;;;;;33.78;20.88;;;;;;;2.03;78.35;101289.22;1811039;78;20978;-77
2020/12/31 06:56:15;;;;;;;30.82;18.45;;;;;;;2.06;78.43;101294.34;1810621;78;20911;-76
2020/12/31 06:58:44;;;;;;;35.20;19.48;;;;;;;2.11;78.36;101291.69;1811115;77;21174;-77
2020/12/31 07:01:27;;;;;;;30.45;19.45;;;;;;;2.16;78.27;101296.83;1810962;78;20947;-75
2020/12/31 07:03:57;;;;;;;32.85;20.12;;;;;;;2.20;78.08;101286.82;1811136;78;21369;-86
2020/12/31 07:06:26;;;;;;;34.55;20.90;;;;;;;2.16;77.80;101292.50;1810833;78;20950;-88
2020/12/31 07:08:58;;;;;;;34.90;17.67;;;;;;;2.13;77.97;101282.17;1812031;78;20937;-91
2020/12/31 07:11:33;;;;;;;27.85;16.67;;;;;;;2.12;77.79;101280.48;1812121;78;21108;-90
2020/12/31 07:14:02;;;;;;;;;;;;;;;2.07;77.75;101278.41;1814416;78;21037;-90
2020/12/31 07:16:56;;;;;;;28.90;16.50;;;;;;;2.00;78.01;101277.64;1809306;77;20119;-87
2020/12/31 07:19:46;;;;;;;32.38;19.87;;;;;;;1.97;78.27;101292.33;1809368;78;20939;-90
2020/12/31 07:22:21;;;;;;;29.40;18.00;;;;;;;1.92;78.44;101296.72;1810520;78;21381;-84
2020/12/31 07:25:06;;;;;;;27.80;15.95;;;;;;;1.91;78.74;101279.03;1810009;78;26626;-92
2020/12/31 07:27:43;;;;;;;23.62;14.70;;;;;;;1.91;78.82;101275.15;1811346;78;21089;-87
2020/12/31 07:30:14;;;;;;;26.95;15.85;;;;;;;1.89;78.96;101267.00;1809153;78;21066;-85
2020/12/31 07:33:02;;;;;;;26.10;16.05;;;;;;;1.88;79.18;101267.89;1809408;78;21579;-84
2020/12/31 07:35:49;;;;;;;27.37;16.62;;;;;;;1.94;79.29;101270.41;1809824;77;21011;-85
2020/12/31 07:38:18;;;;;;;27.52;16.48;;;;;;;2.01;79.22;101270.73;1810203;78;21985;-87
2020/12/31 07:43:53;;;;;;;29.37;17.23;;;;;;;2.07;79.09;101251.25;1836095;77;22502;-85
2020/12/31 07:46:22;;;;;;;30.72;17.48;;;;;;;2.16;78.85;101271.80;1783006;78;21025;-86
2020/12/31 07:48:50;;;;;;;31.12;17.87;;;;;;;2.18;78.82;101270.05;1790689;78;22171;-83
2020/12/31 07:51:19;;;;;;;31.33;16.82;;;;;;;2.23;78.87;101272.12;1788422;78;20994;-84
2020/12/31 07:53:59;;;;;;;25.72;15.38;;;;;;;2.31;78.90;101277.61;1774013;78;21598;-82
2020/12/31 07:56:27;;;;;;;27.40;15.53;;;;;;;2.39;78.78;101279.20;1788374;78;21025;-84
2020/12/31 07:58:56;;;;;;;27.55;16.95;;;;;;;2.47;78.54;101270.89;1707320;81;21414;-88
2020/12/31 08:01:25;;;;;;;27.45;17.80;;;;;;;2.56;78.20;101278.95;1706545;82;22236;-88
2020/12/31 08:03:53;;;;;;;29.85;19.42;;;;;;;2.60;78.05;101268.09;1717180;81;20966;-84
2020/12/31 08:06:27;;;;;;;31.87;16.97;;;;;;;2.63;77.85;101260.28;1771980;78;20907;-84
2020/12/31 08:08:56;;;;;;;30.40;17.12;;;;;;;2.64;77.88;101262.83;1770125;78;21189;-86
2020/12/31 08:11:24;;;;;;;25.10;15.38;;;;;;;2.70;77.73;101261.89;1779414;78;21037;-84
2020/12/31 08:14:04;;;;;;;27.48;15.58;;;;;;;2.73;77.58;101263.11;1788097;78;22706;-82
2020/12/31 08:16:32;;;;;;;25.37;14.75;;;;;;;2.75;77.65;101263.09;1784342;78;21499;-84
2020/12/31 08:19:01;;;;;;;30.40;17.00;;;;;;;2.79;77.49;101272.53;1819484;78;20950;-83
2020/12/31 08:21:29;;;;;;;30.90;16.55;;;;;;;2.79;77.44;101269.48;1714272;82;21018;-85
2020/12/31 08:24:07;;;;;;;25.35;16.30;;;;;;;2.83;77.29;101262.53;1788210;78;21096;-81
2020/12/31 08:26:35;;;;;;;34.92;19.60;;;;;;;2.88;77.34;101264.59;1746114;81;21490;-84
2020/12/31 08:29:03;;;;;;;30.15;16.60;;;;;;;3.00;77.06;101255.73;1788728;78;21420;-85
2020/12/31 08:31:33;;;;;;;31.00;17.45;;;;;;;3.08;76.86;101261.19;1802771;78;20954;-86
2020/12/31 08:34:03;;;;;;;25.92;16.48;;;;;;;3.16;76.49;101256.30;1773511;78;21468;-88
2020/12/31 08:36:31;;;;;;;32.17;17.85;;;;;;;3.20;76.39;101267.02;1808873;78;21376;-83
2020/12/31 08:39:04;;;;;;;28.83;16.20;;;;;;;3.25;76.23;101265.22;1800635;78;21156;-83
2020/12/31 08:41:33;;;;;;;27.98;15.98;;;;;;;3.27;76.05;101261.71;1692604;81;21066;-81
2020/12/31 08:44:04;;;;;;;30.27;17.55;;;;;;;3.29;75.97;101253.88;1711141;81;20967;-81
2020/12/31 08:46:31;;;;;;;31.27;17.50;;;;;;;3.36;75.90;101247.72;1708511;81;20932;-79
2020/12/31 08:48:59;;;;;;;26.77;17.52;;;;;;;3.43;75.79;101254.48;1744200;80;21035;-80
2020/12/31 08:51:30;;;;;;;28.95;15.50;;;;;;;3.53;75.79;101252.54;1750309;80;21982;-81
2020/12/31 08:53:59;;;;;;;27.90;17.55;;;;;;;3.65;75.53;101252.30;1778729;78;20990;-81
2020/12/31 08:56:32;;;;;;;28.35;16.48;;;;;;;3.76;74.99;101256.39;1766853;79;21079;-81
2020/12/31 08:59:08;;;;;;;27.42;17.00;;;;;;;3.81;74.91;101256.71;1785619;78;20942;-80
2020/12/31 09:01:36;;;;;;;26.12;15.05;;;;;;;3.87;74.66;101255.29;1781418;78;21069;-78
2020/12/31 09:04:18;;;;;;;25.40;15.00;;;;;;;3.88;73.56;101256.98;1732863;82;21609;-80
2020/12/31 09:06:52;;;;;;;25.52;15.93;;;;;;;3.71;73.48;101257.37;1781771;79;21077;-79
2020/12/31 09:09:28;;;;;;;23.95;16.17;;;;;;;3.55;74.00;101249.48;1788709;78;20962;-81
2020/12/31 09:12:08;;;;;;;23.18;14.47;;;;;;;3.44;74.28;101250.98;1707753;81;21034;-79
2020/12/31 09:14:38;;;;;;;21.37;14.33;;;;;;;3.39;74.35;101253.28;1712373;81;21082;-80
2020/12/31 09:17:24;;;;;;;23.00;14.80;;;;;;;3.28;74.61;101246.55;1784110;80;21169;-80
2020/12/31 09:19:54;;;;;;;20.32;13.10;;;;;;;3.21;75.06;101249.31;1750318;81;21022;-82
2020/12/31 09:22:24;;;;;;;24.82;14.75;;;;;;;3.17;75.30;101245.91;1781202;78;21081;-81
2020/12/31 09:24:53;;;;;;;24.45;15.45;;;;;;;3.10;75.54;101246.92;1813860;78;21073;-83
2020/12/31 09:27:25;;;;;;;25.82;16.17;;;;;;;3.04;75.69;101243.14;1739469;81;20956;-83
2020/12/31 09:30:00;;;;;;;25.88;16.35;;;;;;;3.03;76.13;101241.00;1777428;78;20993;-81
2020/12/31 09:32:28;;;;;;;;;;;;;;;3.12;76.19;101245.16;1721527;82;20990;-86
2020/12/31 09:34:58;;;;;;;23.10;14.03;;;;;;;3.20;75.82;101237.22;1742974;80;20108;-85
2020/12/31 09:37:26;;;;;;;20.12;12.73;;;;;;;3.18;75.62;101238.98;1783367;78;21048;-81
2020/12/31 09:39:54;;;;;;;21.35;13.80;;;;;;;3.13;75.80;101230.45;1782114;78;20970;-82
2020/12/31 09:42:22;;;;;;;24.55;16.27;;;;;;;3.09;75.89;101234.83;1787906;78;21123;-83
2020/12/31 09:44:52;;;;;;;29.32;16.45;;;;;;;3.04;76.10;101231.48;1788047;78;20942;-85
2020/12/31 09:47:20;;;;;;;26.68;16.45;;;;;;;2.99;76.41;101225.55;1708743;83;20919;-82
2020/12/31 09:49:48;;;;;;;30.10;18.92;;;;;;;3.02;76.45;101219.84;1744713;81;21014;-79
2020/12/31 09:52:17;;;;;;;27.58;15.98;;;;;;;3.07;76.48;101213.30;1744450;80;21042;-80
2020/12/31 09:54:49;;;;;;;23.75;15.80;;;;;;;3.14;76.39;101212.75;1788819;78;21142;-77
2020/12/31 09:57:17;;;;;;;30.20;18.52;;;;;;;3.18;76.52;101215.25;1771381;79;21013;-73
2020/12/31 09:59:45;;;;;;;26.17;16.02;;;;;;;3.27;76.53;101210.32;1706443;82;20970;-77
2020/12/31 10:02:14;;;;;;;24.82;14.83;;;;;;;3.40;76.23;101206.59;1781231;78;20947;-73
2020/12/31 10:04:42;;;;;;;28.80;17.25;;;;;;;3.50;75.87;101200.76;1806912;78;21395;-74
2020/12/31 10:07:10;;;;;;;27.93;18.10;;;;;;;3.57;75.67;101199.73;1789051;78;20927;-80
2020/12/31 10:09:37;;;;;;;27.60;16.02;;;;;;;3.62;75.24;101199.18;1719510;81;21117;-74
2020/12/31 10:12:05;;;;;;;24.25;16.07;;;;;;;3.61;75.03;101202.67;1789143;78;21053;-71
2020/12/31 10:14:34;;;;;;;25.55;15.60;;;;;;;3.57;74.96;101191.11;1714166;82;20990;-75
2020/12/31 10:17:03;;;;;;;23.92;15.38;;;;;;;3.55;75.11;101181.21;1787928;78;20923;-76
2020/12/31 10:19:30;;;;;;;23.55;14.68;;;;;;;3.57;75.45;101183.33;1781208;78;21184;-75
2020/12/31 10:21:58;;;;;;;27.65;17.17;;;;;;;3.63;75.08;101180.61;1698460;81;20986;-75
2020/12/31 10:24:26;;;;;;;55.55;33.78;;;;;;;3.62;74.83;101177.13;1783389;78;21544;-74
2020/12/31 10:26:54;;;;;;;32.83;20.10;;;;;;;3.62;74.94;101169.36;1784338;78;20946;-75
2020/12/31 10:29:22;;;;;;;31.05;19.07;;;;;;;3.67;74.84;101170.58;1780501;78;20945;-75
2020/12/31 10:31:54;;;;;;;23.32;14.78;;;;;;;3.72;74.56;101172.61;1805909;78;21176;-75
2020/12/31 10:34:23;;;;;;;24.85;15.68;;;;;;;3.73;74.38;101166.11;1820840;78;21018;-75
2020/12/31 10:36:53;;;;;;;24.15;15.40;;;;;;;3.67;74.42;101164.09;1693906;82;20958;-74
2020/12/31 10:39:23;;;;;;;24.43;15.13;;;;;;;3.63;74.37;101161.16;1783619;78;20954;-75
2020/12/31 10:41:51;;;;;;;26.80;15.75;;;;;;;3.57;74.59;101159.98;1789612;78;21008;-74
2020/12/31 10:44:19;;;;;;;27.32;16.50;;;;;;;3.53;74.44;101148.82;1785563;78;21849;-74
2020/12/31 10:46:47;;;;;;;24.07;14.85;;;;;;;3.49;74.49;101152.36;1775734;78;21054;-75
2020/12/31 10:49:15;;;;;;;27.17;16.95;;;;;;;3.43;74.67;101151.23;1702926;83;21540;-76
2020/12/31 10:51:43;;;;;;;24.12;15.60;;;;;;;3.41;74.85;101145.22;1737923;81;21013;-73
2020/12/31 10:54:12;;;;;;;27.67;16.30;;;;;;;3.44;75.07;101146.44;1752087;80;20942;-77
2020/12/31 10:56:39;;;;;;;28.10;17.10;;;;;;;3.46;74.89;101142.92;1775302;78;21168;-76
2020/12/31 10:59:07;;;;;;;24.30;15.32;;;;;;;3.45;74.99;101144.27;1781396;78;21033;-77
2020/12/31 11:01:35;;;;;;;27.37;17.95;;;;;;;3.44;75.16;101133.47;1744772;82;21556;-74
2020/12/31 11:04:03;;;;;;;27.93;18.67;;;;;;;3.47;74.93;101137.31;1779260;78;21428;-78
2020/12/31 11:06:31;;;;;;;27.07;17.77;;;;;;;3.46;75.12;101141.63;1785993;78;20974;-75
2020/12/31 11:08:59;;;;;;;28.27;16.45;;;;;;;3.48;75.07;101148.08;1769983;78;22242;-80
2020/12/31 11:11:30;;;;;;;25.00;14.93;;;;;;;3.48;74.90;101142.89;1801318;78;22160;-75
2020/12/31 11:13:58;;;;;;;23.90;15.45;;;;;;;3.49;74.88;101144.59;1814059;78;21610;-77
2020/12/31 11:16:26;;;;;;;27.77;16.60;;;;;;;3.46;74.94;101144.22;1702845;82;20986;-73
2020/12/31 11:18:54;;;;;;;27.40;16.48;;;;;;;3.43;75.15;101135.67;1775883;78;21495;-74
2020/12/31 11:21:22;;;;;;;29.45;18.10;;;;;;;3.44;75.19;101143.84;1780878;78;21177;-73
2020/12/31 11:23:50;;;;;;;25.37;17.23;;;;;;;3.43;75.10;101126.59;1699358;83;20943;-72
2020/12/31 11:26:20;;;;;;;31.57;18.65;;;;;;;3.41;75.30;101126.62;1704546;82;21015;-77
2020/12/31 11:28:49;;;;;;;31.95;17.52;;;;;;;3.42;75.23;101122.28;1722386;81;21496;-78
2020/12/31 11:31:28;;;;;;;27.87;16.27;;;;;;;3.44;75.23;101126.99;1747997;82;20990;-84
2020/12/31 11:33:56;;;;;;;24.10;15.58;;;;;;;3.47;75.05;101126.49;1716745;82;21916;-83
2020/12/31 11:36:24;;;;;;;26.27;17.35;;;;;;;3.47;75.03;101124.35;1721091;82;21393;-83